Time;durP1;ratioP1;P1;durP2;ratioP2;P2;SDS_P1;SDS_P2;PMS_P1;PMS_P2;Temp;Humidity;BMP_temperature;BMP_pressure;BME280_temperature;BME280_humidity;BME280_pressure;Samples;Min_cycle;Max_cycle;Signal;HPM_P1;HPM_P2
2022/08/23 00:01:26;;;;;;;5.28;1.23;;;19.30;99.90;;;;;;5033882;28;20501;-73
2022/08/23 00:03:55;;;;;;;3.88;1.30;;;19.20;99.90;;;;;;5033692;28;20021;-73
2022/08/23 00:06:21;;;;;;;4.53;0.93;;;19.20;99.90;;;;;;5034299;28;20029;-73
2022/08/23 00:08:48;;;;;;;1.92;0.98;;;19.10;99.90;;;;;;5032455;28;20021;-73
2022/08/23 00:11:32;;;;;;;9.10;1.58;;;19.10;99.90;;;;;;5033514;28;20541;-73
2022/08/23 00:14:07;;;;;;;1.83;1.13;;;19.00;99.90;;;;;;5033641;28;20025;-73
2022/08/23 00:16:32;;;;;;;2.67;1.30;;;19.00;99.90;;;;;;5032255;28;20037;-73
2022/08/23 00:18:58;;;;;;;5.90;1.45;;;18.90;99.90;;;;;;5033587;28;20023;-73
2022/08/23 00:21:24;;;;;;;3.42;1.08;;;18.90;99.90;;;;;;5034097;28;20344;-73
2022/08/23 00:23:50;;;;;;;3.35;1.48;;;18.80;99.90;;;;;;5032215;28;20030;-73
2022/08/23 00:26:16;;;;;;;3.55;1.35;;;18.70;99.90;;;;;;5033384;28;20072;-73
2022/08/23 00:28:42;;;;;;;2.80;0.85;;;18.70;99.90;;;;;;5033563;28;20052;-73
2022/08/23 00:31:07;;;;;;;3.63;1.08;;;18.60;99.90;;;;;;5033505;28;20025;-73
2022/08/23 00:33:34;;;;;;;5.10;1.05;;;18.60;99.90;;;;;;5033313;28;20510;-73
2022/08/23 00:35:59;;;;;;;2.35;1.27;;;18.50;99.90;;;;;;5033285;28;20033;-73
2022/08/23 00:38:25;;;;;;;3.80;1.30;;;18.50;99.90;;;;;;5033808;28;20083;-73
2022/08/23 00:40:52;;;;;;;4.53;1.33;;;18.50;99.90;;;;;;5032161;28;20027;-73
2022/08/23 00:49:11;;;;;;;5.20;1.65;;;18.40;99.90;;;;;;5033860;28;20087;-73
2022/08/23 00:51:56;;;;;;;3.58;1.50;;;18.50;99.90;;;;;;5031961;28;20026;-73
2022/08/23 00:54:26;;;;;;;4.95;1.80;;;18.40;99.90;;;;;;5037948;28;20088;-73
2022/08/23 00:56:53;;;;;;;2.95;1.50;;;18.40;99.90;;;;;;5037563;28;20041;-73
2022/08/23 00:59:19;;;;;;;5.18;1.48;;;18.50;99.90;;;;;;5036073;28;20025;-73
2022/08/23 01:01:46;;;;;;;2.65;1.42;;;18.50;99.90;;;;;;5037134;28;20022;-73
2022/08/23 01:04:13;;;;;;;4.72;1.23;;;18.50;99.90;;;;;;5035686;28;20033;-73
2022/08/23 01:07:05;;;;;;;3.38;1.88;;;18.50;99.90;;;;;;5037406;28;20017;-73
2022/08/23 01:09:31;;;;;;;3.63;1.80;;;18.50;99.90;;;;;;5018108;28;20502;-73
2022/08/23 01:12:07;;;;;;;3.60;1.90;;;18.50;99.90;;;;;;5036978;28;20063;-73
2022/08/23 01:14:48;;;;;;;3.63;1.73;;;18.60;99.90;;;;;;5035809;28;20033;-73
2022/08/23 01:17:19;;;;;;;2.75;1.42;;;18.60;99.90;;;;;;5036842;28;20041;-73
2022/08/23 01:20:01;;;;;;;3.45;1.33;;;18.60;99.90;;;;;;5035674;28;20042;-73
2022/08/23 01:22:33;;;;;;;7.68;1.35;;;18.60;99.90;;;;;;5036807;28;20033;-73
2022/08/23 01:25:01;;;;;;;9.75;2.65;;;18.60;99.90;;;;;;5035458;28;20120;-73
2022/08/23 01:27:27;;;;;;;5.03;1.48;;;18.60;99.90;;;;;;5036798;28;20049;-73
2022/08/23 01:29:53;;;;;;;5.53;1.60;;;18.60;99.90;;;;;;5035524;28;20026;-73
2022/08/23 01:32:19;;;;;;;3.90;2.33;;;18.60;99.90;;;;;;5036561;28;20026;-73
2022/08/23 01:34:45;;;;;;;5.78;1.50;;;18.50;99.90;;;;;;5035379;28;20072;-73
2022/08/23 01:37:12;;;;;;;11.70;2.40;;;18.50;99.90;;;;;;5035306;28;20018;-73
2022/08/23 01:39:37;;;;;;;3.30;1.60;;;18.40;99.90;;;;;;5036472;28;20037;-73
2022/08/23 01:42:05;;;;;;;4.28;1.42;;;18.50;99.90;;;;;;5036708;28;20026;-73
2022/08/23 01:44:31;;;;;;;3.83;1.55;;;18.40;99.90;;;;;;5035234;28;20022;-73
2022/08/23 01:46:56;;;;;;;5.20;1.55;;;18.40;99.90;;;;;;5036766;28;20080;-73
2022/08/23 01:49:22;;;;;;;4.22;1.27;;;18.30;99.90;;;;;;5037194;28;20032;-73
2022/08/23 01:51:47;;;;;;;4.55;2.05;;;18.20;99.90;;;;;;5036293;28;20021;-73
2022/08/23 01:54:13;;;;;;;6.85;1.88;;;18.30;99.90;;;;;;5034940;28;20145;-73
2022/08/23 01:56:40;;;;;;;4.63;2.15;;;18.30;99.90;;;;;;5036422;28;20021;-73
2022/08/23 01:59:10;;;;;;;6.95;1.92;;;18.20;99.90;;;;;;5036143;28;20380;-73
2022/08/23 02:01:36;;;;;;;3.15;1.33;;;18.20;99.90;;;;;;5036178;28;20033;-73
2022/08/23 02:04:02;;;;;;;5.72;1.60;;;18.20;99.90;;;;;;5034787;28;20022;-73
2022/08/23 02:06:29;;;;;;;3.03;1.40;;;18.20;99.90;;;;;;5035889;28;20104;-73
2022/08/23 02:09:00;;;;;;;3.90;1.20;;;18.20;99.90;;;;;;5034725;28;20017;-73
2022/08/23 02:11:31;;;;;;;5.18;1.00;;;18.10;99.90;;;;;;5035921;28;20068;-73
2022/08/23 02:14:00;;;;;;;5.28;1.15;;;18.10;99.90;;;;;;5035898;28;20022;-73
2022/08/23 02:16:30;;;;;;;;;;;18.00;99.90;;;;;;5034796;28;20034;-73
2022/08/23 02:18:56;;;;;;;2.05;1.38;;;18.00;99.90;;;;;;5035697;28;19951;-73
2022/08/23 02:21:23;;;;;;;5.88;1.30;;;17.90;99.90;;;;;;5035716;28;20479;-73
2022/08/23 02:23:50;;;;;;;2.72;1.42;;;17.90;99.90;;;;;;5035756;28;20028;-73
2022/08/23 02:26:16;;;;;;;3.88;1.27;;;17.80;99.90;;;;;;5034277;28;20091;-73
2022/08/23 02:28:42;;;;;;;4.28;2.00;;;17.70;99.90;;;;;;5034361;28;20439;-73
2022/08/23 02:31:08;;;;;;;2.40;1.02;;;17.70;99.90;;;;;;5035522;28;20052;-73
2022/08/23 02:33:33;;;;;;;6.63;2.00;;;17.60;99.90;;;;;;5035668;28;20149;-73
2022/08/23 02:35:59;;;;;;;6.82;1.35;;;17.60;99.90;;;;;;5035456;28;20033;-73
2022/08/23 02:38:24;;;;;;;7.50;2.47;;;17.60;99.90;;;;;;5035455;28;20095;-73
2022/08/23 02:40:50;;;;;;;6.32;1.40;;;17.50;99.90;;;;;;5034172;28;20032;-73
2022/08/23 02:43:16;;;;;;;4.40;1.38;;;17.50;99.90;;;;;;5035388;28;20030;-73
2022/08/23 02:45:42;;;;;;;2.90;1.48;;;17.50;99.90;;;;;;5035299;28;20025;-73
2022/08/23 02:48:08;;;;;;;6.13;2.13;;;17.50;99.90;;;;;;5035303;28;20109;-73
2022/08/23 02:50:34;;;;;;;1.98;1.20;;;17.50;99.90;;;;;;5033987;28;20018;-73
2022/08/23 02:53:00;;;;;;;6.68;1.98;;;17.50;99.90;;;;;;5033873;28;20017;-73
2022/08/23 02:55:26;;;;;;;5.47;1.38;;;17.50;99.90;;;;;;5035303;28;20033;-73
2022/08/23 02:57:52;;;;;;;5.97;1.60;;;17.50;99.90;;;;;;5035613;28;20100;-73
2022/08/23 03:00:19;;;;;;;4.70;1.83;;;17.50;99.90;;;;;;5034963;28;20113;-73
2022/08/23 03:02:45;;;;;;;4.95;1.52;;;17.50;99.90;;;;;;5035187;28;20032;-73
2022/08/23 03:05:12;;;;;;;5.30;1.27;;;17.50;99.90;;;;;;5033627;28;20437;-73
2022/08/23 03:07:38;;;;;;;4.18;1.20;;;17.50;99.90;;;;;;5035120;28;20470;-73
2022/08/23 03:10:06;;;;;;;7.95;1.63;;;17.60;99.90;;;;;;5033848;28;20079;-73
2022/08/23 03:12:32;;;;;;;5.53;1.80;;;17.60;99.90;;;;;;5033411;28;20032;-73
2022/08/23 03:14:58;;;;;;;2.45;1.33;;;17.60;99.90;;;;;;5034520;28;20393;-73
2022/08/23 03:17:24;;;;;;;8.30;2.03;;;17.60;99.90;;;;;;5033281;28;20041;-73
2022/08/23 03:19:51;;;;;;;7.00;1.80;;;17.70;99.90;;;;;;5034891;28;20022;-73
2022/08/23 03:22:17;;;;;;;3.42;1.75;;;17.60;99.90;;;;;;5035007;28;20017;-73
2022/08/23 03:24:43;;;;;;;5.55;1.80;;;17.70;99.90;;;;;;5034525;28;20085;-73
2022/08/23 03:27:09;;;;;;;7.13;1.67;;;17.70;99.90;;;;;;5034482;28;20039;-73
2022/08/23 03:29:35;;;;;;;4.57;1.95;;;17.70;99.90;;;;;;5033291;28;20391;-73
2022/08/23 03:32:02;;;;;;;4.35;2.13;;;17.70;99.90;;;;;;5034401;28;20028;-73
2022/08/23 03:34:28;;;;;;;3.72;1.90;;;17.70;99.90;;;;;;5034676;28;20386;-73
2022/08/23 03:36:55;;;;;;;4.45;1.73;;;17.70;99.90;;;;;;5033098;28;20029;-73
2022/08/23 03:39:20;;;;;;;4.65;1.27;;;17.70;99.90;;;;;;5034389;28;20029;-73
2022/08/23 03:41:46;;;;;;;4.40;1.80;;;17.70;99.90;;;;;;5034924;28;20030;-73
2022/08/23 03:44:12;;;;;;;4.20;1.92;;;17.70;99.90;;;;;;5034353;28;20114;-73
2022/08/23 03:46:37;;;;;;;1.48;1.30;;;17.70;99.90;;;;;;5034419;28;20072;-73
2022/08/23 03:49:03;;;;;;;3.20;1.52;;;17.70;99.90;;;;;;5034165;28;20036;-73
2022/08/23 03:51:31;;;;;;;4.22;1.52;;;17.70;99.90;;;;;;5034047;28;20083;-73
2022/08/23 03:53:57;;;;;;;5.80;1.52;;;17.70;99.90;;;;;;5034489;28;20025;-73
2022/08/23 03:56:29;;;;;;;4.47;1.35;;;17.70;99.90;;;;;;5032824;28;20014;-73
2022/08/23 03:59:00;;;;;;;5.95;1.15;;;17.70;99.90;;;;;;5033984;28;20438;-73
2022/08/23 04:01:25;;;;;;;4.30;1.92;;;17.80;99.90;;;;;;5033207;28;20479;-73
2022/08/23 04:03:51;;;;;;;4.82;1.15;;;17.70;99.90;;;;;;5033991;28;20036;-73
2022/08/23 04:06:17;;;;;;;5.80;1.60;;;17.80;99.90;;;;;;5034300;28;20037;-73
2022/08/23 04:08:44;;;;;;;6.85;1.85;;;17.90;99.90;;;;;;5034016;28;20022;-73
2022/08/23 04:11:11;;;;;;;4.53;1.25;;;17.90;99.90;;;;;;5032469;28;20018;-73
2022/08/23 04:13:38;;;;;;;4.15;1.45;;;17.80;99.90;;;;;;5033636;28;20391;-73
2022/08/23 04:16:05;;;;;;;3.97;1.40;;;17.90;99.90;;;;;;5033818;28;20036;-73
2022/08/23 04:18:32;;;;;;;3.17;0.93;;;17.90;99.90;;;;;;5032343;28;20571;-73
2022/08/23 04:21:06;;;;;;;5.18;1.55;;;17.90;99.90;;;;;;5033584;28;20029;-73
2022/08/23 04:23:32;;;;;;;2.65;1.17;;;17.90;99.90;;;;;;5033361;28;20025;-73
2022/08/23 04:25:57;;;;;;;3.90;1.15;;;18.00;99.90;;;;;;5033431;28;20032;-73
2022/08/23 04:28:23;;;;;;;4.25;1.05;;;17.90;99.90;;;;;;5032974;28;20029;-73
2022/08/23 04:30:50;;;;;;;5.55;1.30;;;18.00;99.90;;;;;;5033474;28;20061;-73
2022/08/23 04:33:16;;;;;;;3.70;1.20;;;18.00;99.90;;;;;;5033711;28;20658;-73
2022/08/23 04:35:43;;;;;;;3.53;1.25;;;18.00;99.90;;;;;;5033439;28;20026;-73
2022/08/23 04:38:09;;;;;;;6.40;1.55;;;18.00;99.90;;;;;;5033976;28;20079;-73
2022/08/23 04:43:19;;;;;;;3.65;1.60;;;18.00;99.90;;;;;;5033607;28;20103;-73
2022/08/23 04:45:45;;;;;;;2.30;1.33;;;18.00;99.90;;;;;;5033485;28;20021;-73
2022/08/23 04:48:12;;;;;;;3.63;2.13;;;18.10;99.90;;;;;;5032016;28;20030;-73
2022/08/23 04:50:39;;;;;;;3.08;1.65;;;18.10;99.90;;;;;;5033227;28;20068;-73
2022/08/23 04:53:08;;;;;;;2.63;1.67;;;18.10;99.90;;;;;;5033211;28;20033;-73
2022/08/23 04:55:34;;;;;;;3.72;1.27;;;18.60;99.90;;;;;;5031960;28;20434;-73
2022/08/23 04:58:00;;;;;;;8.85;1.63;;;18.20;99.90;;;;;;5033178;28;20087;-73
2022/08/23 05:00:25;;;;;;;4.18;1.63;;;18.20;99.90;;;;;;5033076;28;20029;-73
2022/08/23 05:02:51;;;;;;;3.22;1.50;;;18.30;99.90;;;;;;5033129;28;20025;-73
2022/08/23 05:05:18;;;;;;;2.13;1.00;;;18.20;99.90;;;;;;5033255;28;20018;-73
2022/08/23 05:07:44;;;;;;;5.30;1.50;;;18.30;99.90;;;;;;5033100;28;20462;-73
2022/08/23 05:10:12;;;;;;;1.25;1.13;;;18.30;99.90;;;;;;5033311;28;20101;-73
2022/08/23 05:12:38;;;;;;;4.65;1.65;;;18.40;99.90;;;;;;5032980;28;20017;-73
2022/08/23 05:15:04;;;;;;;7.45;1.40;;;18.40;99.90;;;;;;5033086;28;20130;-73
2022/08/23 05:17:30;;;;;;;2.30;1.42;;;18.40;99.90;;;;;;5032986;28;20068;-73
2022/08/23 05:19:55;;;;;;;3.05;1.48;;;18.40;99.90;;;;;;5033388;28;20459;-73
2022/08/23 05:22:21;;;;;;;3.08;1.30;;;18.40;99.90;;;;;;5032796;28;20029;-73
2022/08/23 05:24:46;;;;;;;5.25;1.75;;;18.50;99.90;;;;;;5032894;28;20029;-73
2022/08/23 05:27:12;;;;;;;6.25;1.98;;;18.50;99.90;;;;;;5032890;28;20512;-73
2022/08/23 05:29:39;;;;;;;3.78;1.85;;;18.60;99.90;;;;;;5032879;28;20036;-74
2022/08/23 05:32:05;;;;;;;5.35;2.05;;;18.60;99.90;;;;;;5033135;28;20025;-74
2022/08/23 05:34:30;;;;;;;2.38;1.20;;;18.60;99.90;;;;;;5032914;28;20450;-74
2022/08/23 05:36:56;;;;;;;4.80;1.85;;;18.70;99.90;;;;;;5032846;28;20025;-74
2022/08/23 05:39:22;;;;;;;3.75;1.30;;;18.70;99.90;;;;;;5035133;28;20069;-74
2022/08/23 05:41:47;;;;;;;4.93;1.98;;;18.80;99.90;;;;;;5036426;28;20026;-74
2022/08/23 05:44:13;;;;;;;2.90;1.25;;;18.80;99.90;;;;;;5035031;28;20201;-74
2022/08/23 05:46:39;;;;;;;2.97;1.77;;;18.90;99.90;;;;;;5036386;28;20056;-74
2022/08/23 05:49:04;;;;;;;2.40;1.70;;;19.00;99.90;;;;;;5036675;28;20017;-74
2022/08/23 05:51:32;;;;;;;4.43;1.52;;;19.00;99.90;;;;;;5036546;28;20485;-74
2022/08/23 05:54:01;;;;;;;3.28;1.35;;;19.10;99.90;;;;;;5034850;28;20017;-74
2022/08/23 05:56:30;;;;;;;2.58;1.55;;;19.20;99.90;;;;;;5036190;28;20026;-74
2022/08/23 05:58:59;;;;;;;6.78;1.92;;;19.20;99.90;;;;;;5036094;28;20041;-74
2022/08/23 06:01:26;;;;;;;6.45;1.50;;;19.30;99.90;;;;;;5034753;28;20084;-74
2022/08/23 06:03:52;;;;;;;8.13;1.65;;;19.40;99.90;;;;;;5036032;28;20467;-74
2022/08/23 06:06:19;;;;;;;4.22;1.85;;;19.50;99.90;;;;;;5034689;28;20025;-74
2022/08/23 06:08:46;;;;;;;4.38;1.35;;;19.60;99.90;;;;;;5035905;28;20435;-74
2022/08/23 06:11:19;;;;;;;5.53;1.77;;;19.70;99.90;;;;;;5035919;28;20021;-74
2022/08/23 06:13:48;;;;;;;1.65;1.27;;;19.80;99.90;;;;;;5034511;28;20095;-74
2022/08/23 06:16:16;;;;;;;5.88;1.98;;;19.80;99.90;;;;;;5035846;28;20479;-74
2022/08/23 06:18:43;;;;;;;4.07;2.00;;;19.90;99.90;;;;;;5035860;28;20025;-74
2022/08/23 06:21:11;;;;;;;5.30;1.92;;;19.90;99.90;;;;;;5034381;28;20025;-74
2022/08/23 06:23:37;;;;;;;6.53;2.20;;;19.90;99.90;;;;;;5036265;28;20104;-74
2022/08/23 06:26:12;;;;;;;8.23;1.25;;;19.90;99.90;;;;;;5035532;28;20026;-74
2022/08/23 06:28:38;;;;;;;4.40;1.23;;;19.90;99.90;;;;;;5034422;28;20021;-75
2022/08/23 06:31:04;;;;;;;4.40;1.73;;;19.90;99.90;;;;;;5035590;28;20501;-74
2022/08/23 06:33:29;;;;;;;6.38;1.65;;;19.90;99.90;;;;;;5034358;28;20037;-74
2022/08/23 06:36:07;;;;;;;5.25;2.22;;;20.00;99.90;;;;;;5035418;28;20025;-74
2022/08/23 06:38:34;;;;;;;3.75;2.03;;;20.10;99.90;;;;;;5034265;28;20021;-74
2022/08/23 06:41:05;;;;;;;4.35;2.00;;;20.20;99.90;;;;;;5034175;28;20079;-74
2022/08/23 06:43:31;;;;;;;4.22;2.28;;;20.30;99.90;;;;;;5035803;28;20030;-74
2022/08/23 06:46:17;;;;;;;4.43;1.85;;;20.50;99.90;;;;;;5035190;28;20032;-74
2022/08/23 06:48:44;;;;;;;5.95;2.83;;;20.60;99.90;;;;;;5035195;28;20022;-74
2022/08/23 06:51:34;;;;;;;8.00;2.83;;;20.70;99.90;;;;;;5034924;28;20018;-75
2022/08/23 06:54:03;;;;;;;12.10;2.38;;;21.00;99.90;;;;;;5034722;28;20425;-75
2022/08/23 06:56:29;;;;;;;8.77;2.53;;;21.20;99.90;;;;;;5033889;28;20025;-75
2022/08/23 06:58:55;;;;;;;3.88;1.80;;;21.50;99.90;;;;;;5035093;28;20036;-75
2022/08/23 07:01:32;;;;;;;4.15;2.22;;;21.80;99.90;;;;;;5035102;28;20102;-74
2022/08/23 07:03:59;;;;;;;7.25;2.20;;;22.00;99.90;;;;;;5034934;28;20083;-75
2022/08/23 07:06:27;;;;;;;9.02;2.65;;;22.10;99.90;;;;;;5033594;28;20025;-73
2022/08/23 07:08:53;;;;;;;6.17;2.13;;;22.30;99.90;;;;;;5035452;28;20025;-74
2022/08/23 07:11:20;;;;;;;9.25;1.95;;;22.40;99.90;;;;;;5033847;28;20386;-74
2022/08/23 07:13:47;;;;;;;7.25;1.80;;;22.50;99.90;;;;;;5033449;28;20433;-74
2022/08/23 07:16:16;;;;;;;5.13;2.60;;;22.60;99.90;;;;;;5040611;22;20037;-75
2022/08/23 07:18:43;;;;;;;13.00;2.55;;;22.70;99.90;;;;;;5033410;28;20116;-75
2022/08/23 07:21:09;;;;;;;6.97;3.28;;;22.90;99.90;;;;;;5034815;28;20017;-75
2022/08/23 07:23:35;;;;;;;4.78;2.10;;;22.80;99.90;;;;;;5034537;28;20497;-75
2022/08/23 07:26:07;;;;;;;14.40;3.65;;;22.80;99.90;;;;;;5034757;28;20390;-76
2022/08/23 07:28:33;;;;;;;6.57;2.80;;;22.90;99.90;;;;;;5034389;28;20101;-76
2022/08/23 07:31:07;;;;;;;8.68;2.88;;;23.00;99.90;;;;;;5034383;28;20053;-76
2022/08/23 07:33:33;;;;;;;13.70;3.03;;;23.00;99.90;;;;;;5034282;28;20029;-76
2022/08/23 07:35:58;;;;;;;6.28;2.65;;;23.10;99.90;;;;;;5016533;28;20034;-75
2022/08/23 07:38:24;;;;;;;4.07;2.63;;;23.20;99.90;;;;;;5034784;28;20025;-75
2022/08/23 07:40:49;;;;;;;8.55;2.90;;;23.10;99.90;;;;;;5034240;28;20030;-75
2022/08/23 07:43:15;;;;;;;5.35;2.28;;;23.00;99.90;;;;;;5034342;28;20032;-75
2022/08/23 07:45:42;;;;;;;5.70;2.15;;;23.00;99.90;;;;;;5034050;28;20029;-75
2022/08/23 07:48:08;;;;;;;11.50;3.13;;;22.90;99.90;;;;;;5034062;28;20010;-75
2022/08/23 07:50:34;;;;;;;8.35;3.40;;;23.00;99.90;;;;;;5016442;28;20478;-75
2022/08/23 07:53:01;;;;;;;6.57;3.13;;;22.90;99.90;;;;;;5033970;28;20029;-76
2022/08/23 07:55:27;;;;;;;9.23;3.55;;;23.00;99.90;;;;;;5016339;28;20048;-75
2022/08/23 07:57:53;;;;;;;6.80;2.83;;;23.00;99.90;;;;;;5033957;28;20026;-75
2022/08/23 08:00:19;;;;;;;7.28;3.13;;;23.10;99.90;;;;;;5033947;28;20030;-75
2022/08/23 08:02:44;;;;;;;7.20;2.42;;;23.20;99.90;;;;;;5032914;28;20036;-75
2022/08/23 08:05:10;;;;;;;7.65;3.00;;;23.40;99.90;;;;;;5015958;28;20031;-75
2022/08/23 08:07:36;;;;;;;9.32;3.03;;;23.70;99.90;;;;;;5033809;28;20021;-75
2022/08/23 08:10:03;;;;;;;6.15;3.30;;;23.90;99.90;;;;;;5016050;28;20372;-75
2022/08/23 08:12:28;;;;;;;14.48;3.08;;;24.00;99.90;;;;;;5015971;28;20025;-74
2022/08/23 08:14:54;;;;;;;7.43;3.20;;;24.10;99.90;;;;;;5033598;28;20029;-75
2022/08/23 08:17:25;;;;;;;11.10;3.35;;;24.20;99.90;;;;;;5033441;28;20044;-74
2022/08/23 08:19:50;;;;;;;10.63;3.65;;;24.20;99.90;;;;;;5033653;28;20030;-74
2022/08/23 08:22:16;;;;;;;7.65;3.75;;;24.30;99.90;;;;;;5033520;28;20029;-74
2022/08/23 08:24:42;;;;;;;6.18;3.63;;;24.30;99.90;;;;;;5034051;28;20033;-74
2022/08/23 08:27:08;;;;;;;5.28;2.78;;;24.30;99.90;;;;;;5033517;28;20032;-75
2022/08/23 08:29:33;;;;;;;10.95;4.50;;;24.30;99.90;;;;;;5033549;28;20391;-74
2022/08/23 08:31:59;;;;;;;12.35;3.88;;;24.20;99.90;;;;;;5033490;28;20018;-75
2022/08/23 08:34:24;;;;;;;13.63;4.05;;;24.10;99.90;;;;;;5015756;28;20490;-74
2022/08/23 08:36:55;;;;;;;8.77;4.32;;;24.10;99.90;;;;;;5033407;28;20025;-74
2022/08/23 08:39:24;;;;;;;8.18;4.50;;;24.10;99.90;;;;;;5033241;28;20383;-74
2022/08/23 08:42:07;;;;;;;7.82;4.00;;;24.10;99.90;;;;;;5033528;28;20021;-75
2022/08/23 08:44:51;;;;;;;9.43;4.00;;;24.10;99.90;;;;;;5015669;28;20029;-74
2022/08/23 08:47:27;;;;;;;10.57;3.65;;;24.30;99.90;;;;;;5033675;28;20018;-74
2022/08/23 08:50:09;;;;;;;8.57;3.72;;;24.40;99.90;;;;;;5033352;28;20053;-74
2022/08/23 08:52:39;;;;;;;8.98;3.97;;;24.50;99.90;;;;;;5034512;28;20054;-74
2022/08/23 08:55:18;;;;;;;11.18;4.30;;;24.70;99.90;;;;;;5033355;28;20026;-74
2022/08/23 08:57:47;;;;;;;12.25;3.63;;;24.80;99.90;;;;;;5015856;28;20505;-74
2022/08/23 09:00:17;;;;;;;9.82;3.78;;;24.90;99.90;;;;;;5033171;28;20390;-74
2022/08/23 09:02:44;;;;;;;8.77;3.50;;;25.00;99.90;;;;;;5033956;28;20427;-74
2022/08/23 09:05:20;;;;;;;11.02;4.95;;;25.00;99.90;;;;;;5033093;28;20083;-74
2022/08/23 09:07:59;;;;;;;8.85;4.07;;;25.10;99.90;;;;;;5033406;28;20429;-75
2022/08/23 09:10:43;;;;;;;8.20;3.03;;;25.10;99.90;;;;;;5033324;28;20014;-74
2022/08/23 09:13:52;;;;;;;11.73;4.70;;;25.10;99.90;;;;;;5033519;28;20394;-75
2022/08/23 09:16:45;;;;;;;7.57;5.00;;;25.20;99.90;;;;;;4976124;28;20702;-75
2022/08/23 09:19:11;;;;;;;10.57;4.53;;;25.40;99.90;;;;;;5037082;28;20045;-75
2022/08/23 09:21:46;;;;;;;8.43;4.93;;;25.60;99.90;;;;;;5019386;28;20025;-74
2022/08/23 09:24:12;;;;;;;11.18;4.15;;;25.70;99.90;;;;;;5036868;28;20036;-75
2022/08/23 09:26:39;;;;;;;12.75;4.32;;;25.80;99.90;;;;;;5019175;28;20108;-75
2022/08/23 09:29:07;;;;;;;10.07;4.72;;;26.00;99.90;;;;;;5037072;28;20028;-74
2022/08/23 09:31:43;;;;;;;5.20;3.35;;;26.10;99.40;;;;;;5037435;28;20029;-75
2022/08/23 09:34:14;;;;;;;10.27;4.47;;;26.40;99.90;;;;;;5036856;28;20026;-75
2022/08/23 09:36:40;;;;;;;11.40;4.57;;;26.40;98.20;;;;;;5018958;28;20029;-75
2022/08/23 09:39:29;;;;;;;10.10;4.45;;;26.50;97.40;;;;;;5037011;28;20462;-75
2022/08/23 09:41:56;;;;;;;8.55;4.28;;;26.40;98.70;;;;;;5036623;28;20397;-75
2022/08/23 09:44:42;;;;;;;7.72;3.80;;;26.60;98.10;;;;;;5018769;28;20387;-74
2022/08/23 09:47:15;;;;;;;7.75;3.53;;;26.70;97.40;;;;;;5018827;28;20031;-74
2022/08/23 09:49:43;;;;;;;8.75;4.68;;;26.70;97.00;;;;;;5036436;28;20022;-74
2022/08/23 09:52:24;;;;;;;7.22;3.85;;;26.80;95.80;;;;;;5036777;28;20420;-74
2022/08/23 09:55:05;;;;;;;8.65;3.28;;;26.70;95.50;;;;;;5036429;28;20060;-74
2022/08/23 09:57:33;;;;;;;6.60;3.63;;;26.70;95.80;;;;;;5018561;28;20029;-74
2022/08/23 10:00:23;;;;;;;9.50;3.70;;;26.90;96.20;;;;;;5018613;28;20494;-74
2022/08/23 10:02:49;;;;;;;11.57;3.25;;;27.00;95.00;;;;;;5036094;28;20363;-74
2022/08/23 10:05:26;;;;;;;4.07;1.90;;;27.20;94.80;;;;;;5018528;28;20080;-75
2022/08/23 10:07:54;;;;;;;7.75;1.85;;;27.40;94.10;;;;;;5036134;28;20467;-75
2022/08/23 10:10:23;;;;;;;8.60;2.77;;;27.50;93.50;;;;;;5036137;28;20390;-75
2022/08/23 10:12:50;;;;;;;8.85;2.08;;;27.70;92.10;;;;;;5036068;28;20343;-75
2022/08/23 10:15:16;;;;;;;5.65;1.58;;;27.90;93.00;;;;;;5018207;28;20022;-74
2022/08/23 10:18:01;;;;;;;4.32;1.10;;;28.10;91.70;;;;;;5035840;28;20410;-74
2022/08/23 10:20:40;;;;;;;2.83;0.90;;;28.20;90.90;;;;;;5036474;28;20108;-74
2022/08/23 10:23:21;;;;;;;6.18;0.75;;;28.40;90.60;;;;;;5035954;28;20021;-75
2022/08/23 10:25:56;;;;;;;2.75;0.30;;;28.50;90.40;;;;;;5035421;28;20049;-75
2022/08/23 10:31:50;;;;;;;2.20;0.77;;;28.50;90.40;;;;;;5036643;28;20505;-75
2022/08/23 10:34:53;;;;;;;5.10;0.10;;;28.70;86.80;;;;;;5035489;28;20033;-75
2022/08/23 10:37:24;;;;;;;0.32;0.00;;;28.80;86.00;;;;;;5022315;28;20129;-75
2022/08/23 10:40:18;;;;;;;1.83;0.30;;;28.50;85.20;;;;;;5036001;28;20029;-75
2022/08/23 10:42:58;;;;;;;2.40;0.35;;;28.60;86.90;;;;;;5034919;28;20038;-75
2022/08/23 10:45:29;;;;;;;4.78;0.38;;;28.80;85.10;;;;;;5035204;28;20025;-74
2022/08/23 10:48:13;;;;;;;4.32;0.30;;;29.00;85.20;;;;;;5017728;28;20075;-75
2022/08/23 10:50:49;;;;;;;3.75;0.40;;;29.10;85.80;;;;;;5035324;28;20022;-76
2022/08/23 10:53:16;;;;;;;3.50;0.30;;;29.10;83.00;;;;;;5017453;28;20596;-76
2022/08/23 10:56:05;;;;;;;5.18;0.30;;;29.10;81.90;;;;;;5035138;28;20025;-74
2022/08/23 10:58:39;;;;;;;1.60;0.17;;;29.20;83.60;;;;;;5035843;28;20022;-74
2022/08/23 11:01:08;;;;;;;1.98;0.25;;;29.40;81.90;;;;;;5035635;28;20494;-74
2022/08/23 11:04:00;;;;;;;2.00;0.28;;;29.60;80.80;;;;;;5035391;28;20556;-74
2022/08/23 11:06:40;;;;;;;3.70;0.20;;;29.80;79.90;;;;;;5028168;28;20076;-74
2022/08/23 11:09:18;;;;;;;2.33;0.05;;;30.00;77.20;;;;;;5035076;28;20036;-74
2022/08/23 11:12:06;;;;;;;3.63;0.50;;;30.10;77.40;;;;;;5034963;28;20021;-74
2022/08/23 11:14:50;;;;;;;0.88;0.00;;;30.30;79.20;;;;;;5017322;28;20025;-74
2022/08/23 11:17:35;;;;;;;5.95;0.10;;;30.40;77.20;;;;;;5034872;28;20112;-74
2022/08/23 11:20:07;;;;;;;3.75;0.15;;;30.50;75.20;;;;;;5016986;28;20025;-74
2022/08/23 11:22:55;;;;;;;5.30;0.50;;;30.70;76.70;;;;;;5034948;28;20382;-75
2022/08/23 11:25:21;;;;;;;2.80;0.10;;;30.70;72.80;;;;;;5034523;28;20036;-75
2022/08/23 11:27:47;;;;;;;2.92;0.15;;;30.70;74.40;;;;;;5034622;28;20018;-75
2022/08/23 11:30:31;;;;;;;4.15;0.10;;;30.90;76.50;;;;;;5034625;28;20728;-76
2022/08/23 11:33:17;;;;;;;3.83;0.68;;;31.20;72.10;;;;;;5034457;28;20021;-76
2022/08/23 11:35:52;;;;;;;8.23;1.52;;;31.30;70.80;;;;;;5034574;28;20090;-73
2022/08/23 11:38:46;;;;;;;3.47;0.30;;;31.20;70.90;;;;;;5034312;28;20029;-75
2022/08/23 11:41:17;;;;;;;2.90;0.28;;;31.10;71.80;;;;;;5034252;28;20060;-75
2022/08/23 11:43:46;;;;;;;3.88;0.10;;;30.80;71.40;;;;;;5034134;28;20394;-75
2022/08/23 11:46:22;;;;;;;2.03;0.30;;;30.80;71.10;;;;;;5034114;28;20112;-76
2022/08/23 11:49:26;;;;;;;2.80;0.00;;;30.90;73.00;;;;;;5034281;28;20025;-75
2022/08/23 11:51:58;;;;;;;1.58;0.15;;;31.10;71.90;;;;;;5011150;28;20108;-75
2022/08/23 11:54:39;;;;;;;1.40;0.00;;;31.50;70.80;;;;;;5034119;28;20021;-76
2022/08/23 11:57:42;;;;;;;1.27;0.47;;;31.80;69.50;;;;;;5016312;28;20443;-74
2022/08/23 12:00:20;;;;;;;2.03;0.00;;;31.90;66.70;;;;;;5034159;28;20036;-74
2022/08/23 12:03:00;;;;;;;1.45;0.17;;;31.50;69.00;;;;;;5016163;28;20390;-75
2022/08/23 12:05:40;;;;;;;3.15;0.00;;;31.30;67.60;;;;;;5033721;28;20029;-75
2022/08/23 12:08:12;;;;;;;2.35;0.08;;;30.70;69.80;;;;;;5033869;28;20020;-73
2022/08/23 12:10:41;;;;;;;1.58;0.10;;;30.40;70.80;;;;;;5033927;28;20035;-73
2022/08/23 12:13:21;;;;;;;2.03;0.20;;;30.10;72.70;;;;;;5033867;28;20446;-73
2022/08/23 12:16:12;;;;;;;3.35;0.13;;;29.70;74.50;;;;;;5034053;28;20022;-73
2022/08/23 12:18:46;;;;;;;1.90;0.20;;;29.40;75.90;;;;;;5033861;28;20568;-73
2022/08/23 12:21:26;;;;;;;2.88;0.17;;;29.10;75.00;;;;;;5033686;28;20112;-73
2022/08/23 12:23:57;;;;;;;4.07;0.20;;;28.80;74.20;;;;;;5033505;28;20032;-73
2022/08/23 12:26:33;;;;;;;2.70;0.15;;;28.70;76.90;;;;;;5033589;28;20046;-73
2022/08/23 12:29:05;;;;;;;1.95;0.00;;;28.70;79.20;;;;;;5015798;28;20038;-75
2022/08/23 12:31:51;;;;;;;4.47;0.63;;;28.80;81.30;;;;;;5033874;28;20104;-75
2022/08/23 12:34:28;;;;;;;3.45;0.10;;;29.20;78.80;;;;;;5033486;28;20025;-73
2022/08/23 12:37:21;;;;;;;2.97;0.35;;;29.60;73.90;;;;;;5033846;28;20112;-73
2022/08/23 12:39:54;;;;;;;2.42;0.35;;;29.50;73.90;;;;;;5033590;28;20439;-73
2022/08/23 12:42:33;;;;;;;3.13;0.10;;;29.60;75.00;;;;;;5033315;28;20026;-74
2022/08/23 12:45:11;;;;;;;1.15;0.10;;;30.10;74.50;;;;;;5015591;28;20051;-75
2022/08/23 12:47:41;;;;;;;1.35;0.10;;;30.70;74.00;;;;;;5033660;28;20021;-74
2022/08/23 12:50:12;;;;;;;4.38;0.28;;;30.60;70.50;;;;;;5033106;28;20486;-77
2022/08/23 12:52:38;;;;;;;7.53;0.60;;;30.40;71.90;;;;;;5033560;28;20022;-76
2022/08/23 12:55:17;;;;;;;1.83;0.00;;;30.50;73.20;;;;;;5015683;28;20593;-77
2022/08/23 12:57:53;;;;;;;1.70;0.10;;;30.60;70.60;;;;;;5033239;28;20528;-77
2022/08/23 13:00:27;;;;;;;5.15;0.30;;;30.50;70.20;;;;;;5033970;28;20034;-75
2022/08/23 13:03:19;;;;;;;4.35;0.15;;;30.30;71.30;;;;;;5016076;28;20140;-77
2022/08/23 13:05:46;;;;;;;2.13;0.00;;;30.30;72.40;;;;;;5015384;28;20018;-76
2022/08/23 13:08:21;;;;;;;5.68;0.10;;;30.10;69.80;;;;;;5033414;28;20132;-74
2022/08/23 13:10:47;;;;;;;0.05;0.00;;;30.00;72.10;;;;;;5033663;28;20526;-74
2022/08/23 13:13:18;;;;;;;3.22;0.10;;;29.70;71.80;;;;;;5033055;28;20025;-74
2022/08/23 13:15:51;;;;;;;4.90;0.40;;;29.40;73.50;;;;;;5032953;28;20105;-74